sensor_id;sensor_type;location;lat;lon;timestamp;temperature;humidity
81902;DHT22;71369;50.796;3.290;2023-07-13T00:00:12;15.40;81.90
81902;DHT22;71369;50.796;3.290;2023-07-13T00:02:41;15.40;81.80
81902;DHT22;71369;50.796;3.290;2023-07-13T00:05:07;15.30;82.20
81902;DHT22;71369;50.796;3.290;2023-07-13T00:07:34;15.30;82.60
81902;DHT22;71369;50.796;3.290;2023-07-13T00:10:00;15.20;82.80
81902;DHT22;71369;50.796;3.290;2023-07-13T00:12:34;15.20;82.80
81902;DHT22;71369;50.796;3.290;2023-07-13T00:15:02;15.20;83.30
81902;DHT22;71369;50.796;3.290;2023-07-13T00:17:28;15.20;82.80
81902;DHT22;71369;50.796;3.290;2023-07-13T00:19:57;15.20;83.10
81902;DHT22;71369;50.796;3.290;2023-07-13T00:22:24;15.20;83.00
81902;DHT22;71369;50.796;3.290;2023-07-13T00:24:54;15.20;83.30
81902;DHT22;71369;50.796;3.290;2023-07-13T00:27:22;15.10;84.00
81902;DHT22;71369;50.796;3.290;2023-07-13T00:29:48;15.00;84.30
81902;DHT22;71369;50.796;3.290;2023-07-13T00:32:14;15.00;84.40
81902;DHT22;71369;50.796;3.290;2023-07-13T00:34:39;15.00;84.50
81902;DHT22;71369;50.796;3.290;2023-07-13T00:37:06;15.00;84.50
81902;DHT22;71369;50.796;3.290;2023-07-13T00:39:33;15.00;84.90
81902;DHT22;71369;50.796;3.290;2023-07-13T00:42:00;15.00;84.80
81902;DHT22;71369;50.796;3.290;2023-07-13T00:44:26;15.10;84.70
81902;DHT22;71369;50.796;3.290;2023-07-13T00:46:52;15.10;84.80
81902;DHT22;71369;50.796;3.290;2023-07-13T00:49:23;15.00;85.00
81902;DHT22;71369;50.796;3.290;2023-07-13T00:51:53;15.10;85.00
81902;DHT22;71369;50.796;3.290;2023-07-13T00:54:41;15.00;84.90
81902;DHT22;71369;50.796;3.290;2023-07-13T00:57:12;15.10;84.90
81902;DHT22;71369;50.796;3.290;2023-07-13T00:59:42;15.10;84.40
81902;DHT22;71369;50.796;3.290;2023-07-13T01:02:09;15.00;85.00
81902;DHT22;71369;50.796;3.290;2023-07-13T01:04:36;15.00;85.00
81902;DHT22;71369;50.796;3.290;2023-07-13T01:07:01;15.00;85.20
81902;DHT22;71369;50.796;3.290;2023-07-13T01:09:27;14.90;85.70
81902;DHT22;71369;50.796;3.290;2023-07-13T01:11:53;15.00;85.40
81902;DHT22;71369;50.796;3.290;2023-07-13T01:14:19;14.90;85.50
81902;DHT22;71369;50.796;3.290;2023-07-13T01:16:46;14.90;85.80
81902;DHT22;71369;50.796;3.290;2023-07-13T01:19:39;14.90;86.20
81902;DHT22;71369;50.796;3.290;2023-07-13T01:22:14;14.90;86.50
81902;DHT22;71369;50.796;3.290;2023-07-13T01:24:42;14.90;85.90
81902;DHT22;71369;50.796;3.290;2023-07-13T01:27:10;14.90;86.00
81902;DHT22;71369;50.796;3.290;2023-07-13T01:29:38;14.90;86.30
81902;DHT22;71369;50.796;3.290;2023-07-13T01:32:12;14.90;86.40
81902;DHT22;71369;50.796;3.290;2023-07-13T01:34:39;14.90;86.20
81902;DHT22;71369;50.796;3.290;2023-07-13T01:37:08;14.90;86.00
81902;DHT22;71369;50.796;3.290;2023-07-13T01:39:35;14.90;86.30
81902;DHT22;71369;50.796;3.290;2023-07-13T01:42:01;14.80;86.40
81902;DHT22;71369;50.796;3.290;2023-07-13T01:44:27;14.80;87.00
81902;DHT22;71369;50.796;3.290;2023-07-13T01:46:53;14.80;86.80
81902;DHT22;71369;50.796;3.290;2023-07-13T01:49:18;14.70;87.10
81902;DHT22;71369;50.796;3.290;2023-07-13T01:51:44;14.70;87.10
81902;DHT22;71369;50.796;3.290;2023-07-13T01:54:10;14.70;86.90
81902;DHT22;71369;50.796;3.290;2023-07-13T01:56:35;14.80;86.60
81902;DHT22;71369;50.796;3.290;2023-07-13T01:59:01;14.80;86.40
81902;DHT22;71369;50.796;3.290;2023-07-13T02:01:27;14.80;86.20
81902;DHT22;71369;50.796;3.290;2023-07-13T02:03:53;14.80;86.40
81902;DHT22;71369;50.796;3.290;2023-07-13T02:06:18;14.80;86.50
81902;DHT22;71369;50.796;3.290;2023-07-13T02:08:44;14.70;86.70
81902;DHT22;71369;50.796;3.290;2023-07-13T02:11:10;14.80;86.50
81902;DHT22;71369;50.796;3.290;2023-07-13T02:13:36;14.70;86.70
81902;DHT22;71369;50.796;3.290;2023-07-13T02:16:01;14.80;86.80
81902;DHT22;71369;50.796;3.290;2023-07-13T02:18:27;14.70;87.00
81902;DHT22;71369;50.796;3.290;2023-07-13T02:20:53;14.70;87.00
81902;DHT22;71369;50.796;3.290;2023-07-13T02:23:19;14.70;86.90
81902;DHT22;71369;50.796;3.290;2023-07-13T02:25:45;14.70;87.00
81902;DHT22;71369;50.796;3.290;2023-07-13T02:28:11;14.70;86.90
81902;DHT22;71369;50.796;3.290;2023-07-13T02:30:37;14.60;87.10
81902;DHT22;71369;50.796;3.290;2023-07-13T02:33:04;14.60;87.30
81902;DHT22;71369;50.796;3.290;2023-07-13T02:35:30;14.70;87.30
81902;DHT22;71369;50.796;3.290;2023-07-13T02:37:56;14.70;87.20
81902;DHT22;71369;50.796;3.290;2023-07-13T02:40:22;14.60;87.80
81902;DHT22;71369;50.796;3.290;2023-07-13T02:42:48;14.60;87.70
81902;DHT22;71369;50.796;3.290;2023-07-13T02:45:14;14.50;88.00
81902;DHT22;71369;50.796;3.290;2023-07-13T02:47:41;14.50;88.40
81902;DHT22;71369;50.796;3.290;2023-07-13T02:50:07;14.60;88.50
81902;DHT22;71369;50.796;3.290;2023-07-13T02:52:33;14.60;88.50
81902;DHT22;71369;50.796;3.290;2023-07-13T02:54:59;14.60;88.10
81902;DHT22;71369;50.796;3.290;2023-07-13T02:57:24;14.60;88.10
81902;DHT22;71369;50.796;3.290;2023-07-13T02:59:50;14.60;88.20
81902;DHT22;71369;50.796;3.290;2023-07-13T03:02:16;14.60;88.10
81902;DHT22;71369;50.796;3.290;2023-07-13T03:04:42;14.70;87.70
81902;DHT22;71369;50.796;3.290;2023-07-13T03:07:07;14.70;87.80
81902;DHT22;71369;50.796;3.290;2023-07-13T03:09:34;14.70;88.10
81902;DHT22;71369;50.796;3.290;2023-07-13T03:12:00;14.70;87.90
81902;DHT22;71369;50.796;3.290;2023-07-13T03:14:26;14.70;87.60
81902;DHT22;71369;50.796;3.290;2023-07-13T03:16:52;14.70;88.00
81902;DHT22;71369;50.796;3.290;2023-07-13T03:19:18;14.70;88.00
81902;DHT22;71369;50.796;3.290;2023-07-13T03:21:45;14.60;88.40
81902;DHT22;71369;50.796;3.290;2023-07-13T03:24:11;14.70;88.30
81902;DHT22;71369;50.796;3.290;2023-07-13T03:26:38;14.70;87.80
81902;DHT22;71369;50.796;3.290;2023-07-13T03:29:04;14.70;88.20
81902;DHT22;71369;50.796;3.290;2023-07-13T03:31:33;14.70;88.40
81902;DHT22;71369;50.796;3.290;2023-07-13T03:33:59;14.80;87.90
81902;DHT22;71369;50.796;3.290;2023-07-13T03:36:28;14.80;88.10
81902;DHT22;71369;50.796;3.290;2023-07-13T03:38:56;14.70;88.10
81902;DHT22;71369;50.796;3.290;2023-07-13T03:41:24;14.70;88.60
81902;DHT22;71369;50.796;3.290;2023-07-13T03:43:51;14.70;88.70
81902;DHT22;71369;50.796;3.290;2023-07-13T03:46:17;14.70;88.70
81902;DHT22;71369;50.796;3.290;2023-07-13T03:48:44;14.70;88.70
81902;DHT22;71369;50.796;3.290;2023-07-13T03:51:11;14.70;89.10
81902;DHT22;71369;50.796;3.290;2023-07-13T03:53:43;14.80;88.90
81902;DHT22;71369;50.796;3.290;2023-07-13T03:56:09;14.90;88.70
81902;DHT22;71369;50.796;3.290;2023-07-13T03:58:40;14.90;88.60
81902;DHT22;71369;50.796;3.290;2023-07-13T04:01:07;15.00;88.60
81902;DHT22;71369;50.796;3.290;2023-07-13T04:03:34;15.20;88.20
81902;DHT22;71369;50.796;3.290;2023-07-13T04:06:01;15.20;87.90
81902;DHT22;71369;50.796;3.290;2023-07-13T04:08:35;15.40;87.70
81902;DHT22;71369;50.796;3.290;2023-07-13T04:11:02;15.40;87.40
81902;DHT22;71369;50.796;3.290;2023-07-13T04:13:28;15.50;87.10
81902;DHT22;71369;50.796;3.290;2023-07-13T04:15:54;15.50;87.40
81902;DHT22;71369;50.796;3.290;2023-07-13T04:18:21;15.50;87.30
81902;DHT22;71369;50.796;3.290;2023-07-13T04:20:49;15.60;87.20
81902;DHT22;71369;50.796;3.290;2023-07-13T04:23:16;15.70;86.70
81902;DHT22;71369;50.796;3.290;2023-07-13T04:25:46;15.70;86.50
81902;DHT22;71369;50.796;3.290;2023-07-13T04:28:15;15.70;86.40
81902;DHT22;71369;50.796;3.290;2023-07-13T04:30:41;15.80;86.60
81902;DHT22;71369;50.796;3.290;2023-07-13T04:33:07;15.80;86.40
81902;DHT22;71369;50.796;3.290;2023-07-13T04:35:34;15.90;86.00
81902;DHT22;71369;50.796;3.290;2023-07-13T04:38:00;16.10;85.50
81902;DHT22;71369;50.796;3.290;2023-07-13T04:40:28;16.10;85.20
81902;DHT22;71369;50.796;3.290;2023-07-13T04:42:55;16.10;85.20
81902;DHT22;71369;50.796;3.290;2023-07-13T04:45:22;16.20;85.20
81902;DHT22;71369;50.796;3.290;2023-07-13T04:47:49;16.20;84.80
81902;DHT22;71369;50.796;3.290;2023-07-13T04:50:15;16.30;84.60
81902;DHT22;71369;50.796;3.290;2023-07-13T04:52:45;16.30;84.50
81902;DHT22;71369;50.796;3.290;2023-07-13T04:55:11;16.40;84.10
81902;DHT22;71369;50.796;3.290;2023-07-13T04:57:37;16.40;84.30
81902;DHT22;71369;50.796;3.290;2023-07-13T05:00:03;16.50;83.90
81902;DHT22;71369;50.796;3.290;2023-07-13T05:02:33;16.60;83.00
81902;DHT22;71369;50.796;3.290;2023-07-13T05:05:00;16.70;83.70
81902;DHT22;71369;50.796;3.290;2023-07-13T05:07:26;16.70;82.60
81902;DHT22;71369;50.796;3.290;2023-07-13T05:09:52;16.80;82.40
81902;DHT22;71369;50.796;3.290;2023-07-13T05:12:18;16.80;82.20
81902;DHT22;71369;50.796;3.290;2023-07-13T05:14:44;16.80;81.90
81902;DHT22;71369;50.796;3.290;2023-07-13T05:17:10;16.80;81.80
81902;DHT22;71369;50.796;3.290;2023-07-13T05:19:36;16.80;82.40
81902;DHT22;71369;50.796;3.290;2023-07-13T05:22:02;16.80;82.40
81902;DHT22;71369;50.796;3.290;2023-07-13T05:24:38;16.80;81.90
81902;DHT22;71369;50.796;3.290;2023-07-13T05:27:06;17.00;81.30
81902;DHT22;71369;50.796;3.290;2023-07-13T05:29:32;17.10;80.80
81902;DHT22;71369;50.796;3.290;2023-07-13T05:31:58;17.00;81.30
81902;DHT22;71369;50.796;3.290;2023-07-13T05:34:30;17.00;81.00
81902;DHT22;71369;50.796;3.290;2023-07-13T05:37:00;17.10;80.70
81902;DHT22;71369;50.796;3.290;2023-07-13T05:39:46;17.10;80.80
81902;DHT22;71369;50.796;3.290;2023-07-13T05:42:18;17.20;80.30
81902;DHT22;71369;50.796;3.290;2023-07-13T05:45:04;17.30;80.00
81902;DHT22;71369;50.796;3.290;2023-07-13T05:48:05;17.30;80.40
81902;DHT22;71369;50.796;3.290;2023-07-13T05:50:39;17.50;80.10
81902;DHT22;71369;50.796;3.290;2023-07-13T05:53:11;17.50;79.70
81902;DHT22;71369;50.796;3.290;2023-07-13T05:55:45;17.60;78.60
81902;DHT22;71369;50.796;3.290;2023-07-13T05:58:13;17.70;78.50
81902;DHT22;71369;50.796;3.290;2023-07-13T06:00:40;17.80;78.80
81902;DHT22;71369;50.796;3.290;2023-07-13T06:03:07;17.90;78.10
81902;DHT22;71369;50.796;3.290;2023-07-13T06:05:33;17.90;77.50
81902;DHT22;71369;50.796;3.290;2023-07-13T06:08:06;18.00;77.20
81902;DHT22;71369;50.796;3.290;2023-07-13T06:10:36;18.00;77.10
81902;DHT22;71369;50.796;3.290;2023-07-13T06:13:04;18.10;77.10
81902;DHT22;71369;50.796;3.290;2023-07-13T06:15:38;18.20;76.90
81902;DHT22;71369;50.796;3.290;2023-07-13T06:18:04;18.30;75.90
81902;DHT22;71369;50.796;3.290;2023-07-13T06:20:34;18.30;75.90
81902;DHT22;71369;50.796;3.290;2023-07-13T06:23:02;18.30;75.50
81902;DHT22;71369;50.796;3.290;2023-07-13T06:25:28;18.20;75.70
81902;DHT22;71369;50.796;3.290;2023-07-13T06:27:53;18.30;75.70
81902;DHT22;71369;50.796;3.290;2023-07-13T06:30:19;18.40;75.90
81902;DHT22;71369;50.796;3.290;2023-07-13T06:32:45;18.50;75.50
81902;DHT22;71369;50.796;3.290;2023-07-13T06:35:31;18.60;75.10
81902;DHT22;71369;50.796;3.290;2023-07-13T06:37:57;18.70;74.60
81902;DHT22;71369;50.796;3.290;2023-07-13T06:40:43;18.60;74.70
81902;DHT22;71369;50.796;3.290;2023-07-13T06:43:11;18.60;74.80
81902;DHT22;71369;50.796;3.290;2023-07-13T06:45:43;18.70;74.70
81902;DHT22;71369;50.796;3.290;2023-07-13T06:48:39;18.80;74.10
81902;DHT22;71369;50.796;3.290;2023-07-13T06:51:16;18.90;73.90
81902;DHT22;71369;50.796;3.290;2023-07-13T06:53:45;18.90;73.60
81902;DHT22;71369;50.796;3.290;2023-07-13T06:56:35;18.90;73.80
81902;DHT22;71369;50.796;3.290;2023-07-13T06:59:01;19.10;72.90
81902;DHT22;71369;50.796;3.290;2023-07-13T07:01:49;19.20;72.80
81902;DHT22;71369;50.796;3.290;2023-07-13T07:04:15;19.40;72.00
81902;DHT22;71369;50.796;3.290;2023-07-13T07:06:49;19.60;71.60
81902;DHT22;71369;50.796;3.290;2023-07-13T07:09:24;20.00;69.80
81902;DHT22;71369;50.796;3.290;2023-07-13T07:11:51;20.30;68.30
81902;DHT22;71369;50.796;3.290;2023-07-13T07:14:19;20.80;66.70
81902;DHT22;71369;50.796;3.290;2023-07-13T07:16:47;20.80;66.00
81902;DHT22;71369;50.796;3.290;2023-07-13T07:19:18;20.90;65.50
81902;DHT22;71369;50.796;3.290;2023-07-13T07:21:56;20.90;65.40
81902;DHT22;71369;50.796;3.290;2023-07-13T07:24:28;20.90;65.50
81902;DHT22;71369;50.796;3.290;2023-07-13T07:26:55;21.00;65.00
81902;DHT22;71369;50.796;3.290;2023-07-13T07:29:25;21.10;65.30
81902;DHT22;71369;50.796;3.290;2023-07-13T07:31:58;21.00;63.80
81902;DHT22;71369;50.796;3.290;2023-07-13T07:34:24;21.60;63.40
81902;DHT22;71369;50.796;3.290;2023-07-13T07:36:50;22.00;62.70
81902;DHT22;71369;50.796;3.290;2023-07-13T07:39:19;21.90;61.40
81902;DHT22;71369;50.796;3.290;2023-07-13T07:41:49;21.70;61.60
81902;DHT22;71369;50.796;3.290;2023-07-13T07:44:20;22.10;61.40
81902;DHT22;71369;50.796;3.290;2023-07-13T07:46:46;22.30;60.00
81902;DHT22;71369;50.796;3.290;2023-07-13T07:49:11;22.00;60.70
81902;DHT22;71369;50.796;3.290;2023-07-13T07:51:41;21.70;61.30
81902;DHT22;71369;50.796;3.290;2023-07-13T07:54:12;22.00;61.20
81902;DHT22;71369;50.796;3.290;2023-07-13T07:56:37;22.50;60.10
81902;DHT22;71369;50.796;3.290;2023-07-13T07:59:17;22.90;57.60
81902;DHT22;71369;50.796;3.290;2023-07-13T08:01:43;22.90;58.30
81902;DHT22;71369;50.796;3.290;2023-07-13T08:04:09;22.90;58.50
81902;DHT22;71369;50.796;3.290;2023-07-13T08:06:37;22.90;57.20
81902;DHT22;71369;50.796;3.290;2023-07-13T08:09:13;22.50;57.70
81902;DHT22;71369;50.796;3.290;2023-07-13T08:11:43;22.70;58.20
81902;DHT22;71369;50.796;3.290;2023-07-13T08:14:14;23.20;56.90
81902;DHT22;71369;50.796;3.290;2023-07-13T08:16:41;23.30;55.40
81902;DHT22;71369;50.796;3.290;2023-07-13T08:19:06;23.60;54.60
81902;DHT22;71369;50.796;3.290;2023-07-13T08:21:32;23.60;55.20
81902;DHT22;71369;50.796;3.290;2023-07-13T08:24:00;23.40;55.40
81902;DHT22;71369;50.796;3.290;2023-07-13T08:26:25;23.90;53.80
81902;DHT22;71369;50.796;3.290;2023-07-13T08:28:52;24.20;53.40
81902;DHT22;71369;50.796;3.290;2023-07-13T08:31:18;24.00;53.00
81902;DHT22;71369;50.796;3.290;2023-07-13T08:33:44;24.00;53.80
81902;DHT22;71369;50.796;3.290;2023-07-13T08:36:10;24.10;53.40
81902;DHT22;71369;50.796;3.290;2023-07-13T08:38:36;24.00;52.90
81902;DHT22;71369;50.796;3.290;2023-07-13T08:41:14;23.70;53.00
81902;DHT22;71369;50.796;3.290;2023-07-13T08:43:41;23.30;53.50
81902;DHT22;71369;50.796;3.290;2023-07-13T08:46:28;22.80;54.40
81902;DHT22;71369;50.796;3.290;2023-07-13T08:54:27;22.70;55.90
81902;DHT22;71369;50.796;3.290;2023-07-13T08:56:53;23.00;54.80
81902;DHT22;71369;50.796;3.290;2023-07-13T08:59:24;23.10;55.20
81902;DHT22;71369;50.796;3.290;2023-07-13T09:04:42;23.20;53.40
81902;DHT22;71369;50.796;3.290;2023-07-13T09:10:32;23.90;52.50
81902;DHT22;71369;50.796;3.290;2023-07-13T09:15:49;24.90;50.10
81902;DHT22;71369;50.796;3.290;2023-07-13T09:18:30;25.20;48.20
81902;DHT22;71369;50.796;3.290;2023-07-13T09:23:28;25.60;46.90
81902;DHT22;71369;50.796;3.290;2023-07-13T09:26:14;24.90;46.70
81902;DHT22;71369;50.796;3.290;2023-07-13T09:28:55;24.20;50.00
81902;DHT22;71369;50.796;3.290;2023-07-13T09:31:39;25.40;49.20
81902;DHT22;71369;50.796;3.290;2023-07-13T09:34:11;27.30;44.90
81902;DHT22;71369;50.796;3.290;2023-07-13T09:36:37;28.20;42.30
81902;DHT22;71369;50.796;3.290;2023-07-13T09:44:39;27.90;41.80
81902;DHT22;71369;50.796;3.290;2023-07-13T09:47:31;28.40;40.80
81902;DHT22;71369;50.796;3.290;2023-07-13T09:50:02;29.20;38.50
81902;DHT22;71369;50.796;3.290;2023-07-13T09:52:43;29.50;37.80
81902;DHT22;71369;50.796;3.290;2023-07-13T09:55:42;29.90;36.40
81902;DHT22;71369;50.796;3.290;2023-07-13T09:58:15;30.70;35.90
81902;DHT22;71369;50.796;3.290;2023-07-13T10:00:59;29.90;36.70
81902;DHT22;71369;50.796;3.290;2023-07-13T10:03:31;30.20;36.00
81902;DHT22;71369;50.796;3.290;2023-07-13T10:06:26;30.30;35.30
81902;DHT22;71369;50.796;3.290;2023-07-13T10:08:56;29.40;35.60
81902;DHT22;71369;50.796;3.290;2023-07-13T10:11:35;28.50;38.50
81902;DHT22;71369;50.796;3.290;2023-07-13T10:14:08;28.00;38.20
81902;DHT22;71369;50.796;3.290;2023-07-13T10:16:36;27.40;39.50
81902;DHT22;71369;50.796;3.290;2023-07-13T10:19:10;27.00;39.10
81902;DHT22;71369;50.796;3.290;2023-07-13T10:22:29;26.60;39.80
81902;DHT22;71369;50.796;3.290;2023-07-13T10:24:35;25.30;43.00
81902;DHT22;71369;50.796;3.290;2023-07-13T10:27:15;23.00;51.80
81902;DHT22;71369;50.796;3.290;2023-07-13T10:30:06;21.60;58.70
81902;DHT22;71369;50.796;3.290;2023-07-13T10:32:35;20.20;67.30
81902;DHT22;71369;50.796;3.290;2023-07-13T10:35:01;19.20;71.30
81902;DHT22;71369;50.796;3.290;2023-07-13T10:37:39;18.40;71.60
81902;DHT22;71369;50.796;3.290;2023-07-13T10:40:13;18.00;78.20
81902;DHT22;71369;50.796;3.290;2023-07-13T10:42:44;17.70;78.60
81902;DHT22;71369;50.796;3.290;2023-07-13T10:45:18;17.60;81.00
81902;DHT22;71369;50.796;3.290;2023-07-13T10:47:45;17.80;81.60
81902;DHT22;71369;50.796;3.290;2023-07-13T10:50:22;18.00;82.00
81902;DHT22;71369;50.796;3.290;2023-07-13T10:52:54;18.30;81.60
81902;DHT22;71369;50.796;3.290;2023-07-13T10:58:19;19.20;81.50
81902;DHT22;71369;50.796;3.290;2023-07-13T11:03:22;19.80;76.90
81902;DHT22;71369;50.796;3.290;2023-07-13T11:06:08;20.00;78.60
81902;DHT22;71369;50.796;3.290;2023-07-13T11:08:51;20.40;78.20
81902;DHT22;71369;50.796;3.290;2023-07-13T11:11:37;20.90;75.60
81902;DHT22;71369;50.796;3.290;2023-07-13T11:14:25;21.50;74.60
81902;DHT22;71369;50.796;3.290;2023-07-13T11:16:51;22.80;70.90
81902;DHT22;71369;50.796;3.290;2023-07-13T11:22:02;24.90;59.30
81902;DHT22;71369;50.796;3.290;2023-07-13T11:24:47;24.40;62.50
81902;DHT22;71369;50.796;3.290;2023-07-13T11:30:35;25.90;55.20
81902;DHT22;71369;50.796;3.290;2023-07-13T11:36:15;27.20;52.60
81902;DHT22;71369;50.796;3.290;2023-07-13T11:38:44;27.40;48.60
81902;DHT22;71369;50.796;3.290;2023-07-13T11:41:23;27.80;49.80
81902;DHT22;71369;50.796;3.290;2023-07-13T11:43:52;27.70;46.70
81902;DHT22;71369;50.796;3.290;2023-07-13T11:46:24;28.10;45.80
81902;DHT22;71369;50.796;3.290;2023-07-13T11:48:51;28.70;46.50
81902;DHT22;71369;50.796;3.290;2023-07-13T11:51:30;29.30;45.20
81902;DHT22;71369;50.796;3.290;2023-07-13T11:54:00;29.00;42.70
81902;DHT22;71369;50.796;3.290;2023-07-13T11:56:27;29.60;42.20
81902;DHT22;71369;50.796;3.290;2023-07-13T11:58:55;28.70;38.90
81902;DHT22;71369;50.796;3.290;2023-07-13T12:01:27;28.30;41.00
81902;DHT22;71369;50.796;3.290;2023-07-13T12:04:02;28.50;40.10
81902;DHT22;71369;50.796;3.290;2023-07-13T12:06:34;28.30;40.30
81902;DHT22;71369;50.796;3.290;2023-07-13T12:09:12;28.30;38.60
81902;DHT22;71369;50.796;3.290;2023-07-13T12:11:40;27.90;39.10
81902;DHT22;71369;50.796;3.290;2023-07-13T12:14:12;28.10;40.90
81902;DHT22;71369;50.796;3.290;2023-07-13T12:16:37;28.80;39.00
81902;DHT22;71369;50.796;3.290;2023-07-13T12:19:09;28.50;39.30
81902;DHT22;71369;50.796;3.290;2023-07-13T12:21:41;28.70;38.20
81902;DHT22;71369;50.796;3.290;2023-07-13T12:24:17;29.40;37.30
81902;DHT22;71369;50.796;3.290;2023-07-13T12:26:44;30.20;36.40
81902;DHT22;71369;50.796;3.290;2023-07-13T12:29:17;30.30;36.00
81902;DHT22;71369;50.796;3.290;2023-07-13T12:31:45;29.70;34.60
81902;DHT22;71369;50.796;3.290;2023-07-13T12:34:13;28.80;35.50
81902;DHT22;71369;50.796;3.290;2023-07-13T12:39:33;29.30;35.10
81902;DHT22;71369;50.796;3.290;2023-07-13T12:42:19;29.10;34.00
81902;DHT22;71369;50.796;3.290;2023-07-13T12:44:52;29.40;37.60
81902;DHT22;71369;50.796;3.290;2023-07-13T12:47:20;30.00;34.50
81902;DHT22;71369;50.796;3.290;2023-07-13T12:50:12;29.70;33.60
81902;DHT22;71369;50.796;3.290;2023-07-13T12:52:39;28.10;35.40
81902;DHT22;71369;50.796;3.290;2023-07-13T12:55:15;28.50;34.80
81902;DHT22;71369;50.796;3.290;2023-07-13T12:57:54;28.70;33.30
81902;DHT22;71369;50.796;3.290;2023-07-13T13:00:32;28.90;37.40
81902;DHT22;71369;50.796;3.290;2023-07-13T13:03:33;28.70;34.10
81902;DHT22;71369;50.796;3.290;2023-07-13T13:08:25;28.50;34.20
81902;DHT22;71369;50.796;3.290;2023-07-13T13:10:51;27.60;36.80
81902;DHT22;71369;50.796;3.290;2023-07-13T13:13:17;27.10;37.40
81902;DHT22;71369;50.796;3.290;2023-07-13T13:15:43;27.10;37.40
81902;DHT22;71369;50.796;3.290;2023-07-13T13:18:19;26.80;37.30
81902;DHT22;71369;50.796;3.290;2023-07-13T13:20:47;26.10;37.10
81902;DHT22;71369;50.796;3.290;2023-07-13T13:23:14;26.50;37.70
81902;DHT22;71369;50.796;3.290;2023-07-13T13:25:46;27.20;37.40
81902;DHT22;71369;50.796;3.290;2023-07-13T13:28:17;27.60;34.30
81902;DHT22;71369;50.796;3.290;2023-07-13T13:30:44;27.50;35.10
81902;DHT22;71369;50.796;3.290;2023-07-13T13:33:14;27.50;35.50
81902;DHT22;71369;50.796;3.290;2023-07-13T13:35:40;28.40;35.20
81902;DHT22;71369;50.796;3.290;2023-07-13T13:38:14;28.10;34.60
81902;DHT22;71369;50.796;3.290;2023-07-13T13:40:42;27.60;36.40
81902;DHT22;71369;50.796;3.290;2023-07-13T13:43:24;28.20;36.80
81902;DHT22;71369;50.796;3.290;2023-07-13T13:45:57;28.50;34.30
81902;DHT22;71369;50.796;3.290;2023-07-13T13:48:35;27.70;35.80
81902;DHT22;71369;50.796;3.290;2023-07-13T13:51:12;26.80;36.10
81902;DHT22;71369;50.796;3.290;2023-07-13T13:53:38;27.60;34.30
81902;DHT22;71369;50.796;3.290;2023-07-13T13:56:05;27.60;36.40
81902;DHT22;71369;50.796;3.290;2023-07-13T13:58:30;27.70;34.20
81902;DHT22;71369;50.796;3.290;2023-07-13T14:00:56;27.50;35.40
81902;DHT22;71369;50.796;3.290;2023-07-13T14:03:23;27.30;35.60
81902;DHT22;71369;50.796;3.290;2023-07-13T14:05:49;27.70;34.40
81902;DHT22;71369;50.796;3.290;2023-07-13T14:08:18;27.60;35.90
81902;DHT22;71369;50.796;3.290;2023-07-13T14:10:52;27.30;36.40
81902;DHT22;71369;50.796;3.290;2023-07-13T14:13:22;27.70;36.80
81902;DHT22;71369;50.796;3.290;2023-07-13T14:15:51;27.00;36.20
81902;DHT22;71369;50.796;3.290;2023-07-13T14:18:17;25.80;38.00
81902;DHT22;71369;50.796;3.290;2023-07-13T14:20:47;25.30;39.10
81902;DHT22;71369;50.796;3.290;2023-07-13T14:23:14;25.20;38.40
81902;DHT22;71369;50.796;3.290;2023-07-13T14:25:41;25.20;39.50
81902;DHT22;71369;50.796;3.290;2023-07-13T14:28:27;25.10;39.50
81902;DHT22;71369;50.796;3.290;2023-07-13T14:30:54;25.10;41.60
81902;DHT22;71369;50.796;3.290;2023-07-13T14:33:24;25.50;39.30
81902;DHT22;71369;50.796;3.290;2023-07-13T14:35:50;25.60;39.10
81902;DHT22;71369;50.796;3.290;2023-07-13T14:38:18;25.60;39.60
81902;DHT22;71369;50.796;3.290;2023-07-13T14:40:45;25.40;37.60
81902;DHT22;71369;50.796;3.290;2023-07-13T14:43:15;25.50;38.00
81902;DHT22;71369;50.796;3.290;2023-07-13T14:45:45;25.70;36.90
81902;DHT22;71369;50.796;3.290;2023-07-13T14:48:30;25.80;37.00
81902;DHT22;71369;50.796;3.290;2023-07-13T14:50:58;25.70;38.70
81902;DHT22;71369;50.796;3.290;2023-07-13T14:53:26;25.60;39.60
81902;DHT22;71369;50.796;3.290;2023-07-13T14:55:55;25.70;38.20
81902;DHT22;71369;50.796;3.290;2023-07-13T14:58:21;25.70;39.20
81902;DHT22;71369;50.796;3.290;2023-07-13T15:00:48;25.80;39.60
81902;DHT22;71369;50.796;3.290;2023-07-13T15:03:21;25.90;37.50
81902;DHT22;71369;50.796;3.290;2023-07-13T15:05:49;25.60;39.70
81902;DHT22;71369;50.796;3.290;2023-07-13T15:08:15;25.60;38.80
81902;DHT22;71369;50.796;3.290;2023-07-13T15:10:41;25.60;39.40
81902;DHT22;71369;50.796;3.290;2023-07-13T15:13:18;25.30;38.70
81902;DHT22;71369;50.796;3.290;2023-07-13T15:15:47;25.00;40.20
81902;DHT22;71369;50.796;3.290;2023-07-13T15:18:15;25.00;40.00
81902;DHT22;71369;50.796;3.290;2023-07-13T15:20:43;25.00;41.60
81902;DHT22;71369;50.796;3.290;2023-07-13T15:23:11;25.00;39.40
81902;DHT22;71369;50.796;3.290;2023-07-13T15:25:37;24.80;40.20
81902;DHT22;71369;50.796;3.290;2023-07-13T15:28:03;24.70;40.50
81902;DHT22;71369;50.796;3.290;2023-07-13T15:30:33;24.70;40.90
81902;DHT22;71369;50.796;3.290;2023-07-13T15:33:14;24.90;41.00
81902;DHT22;71369;50.796;3.290;2023-07-13T15:35:40;25.10;41.80
81902;DHT22;71369;50.796;3.290;2023-07-13T15:38:28;25.10;40.30
81902;DHT22;71369;50.796;3.290;2023-07-13T15:40:55;24.90;36.90
81902;DHT22;71369;50.796;3.290;2023-07-13T15:43:21;24.60;38.80
81902;DHT22;71369;50.796;3.290;2023-07-13T15:45:48;24.50;40.60
81902;DHT22;71369;50.796;3.290;2023-07-13T15:48:22;24.50;39.20
81902;DHT22;71369;50.796;3.290;2023-07-13T15:50:53;24.40;39.10
81902;DHT22;71369;50.796;3.290;2023-07-13T15:53:25;24.30;40.10
81902;DHT22;71369;50.796;3.290;2023-07-13T15:55:52;24.30;39.50
81902;DHT22;71369;50.796;3.290;2023-07-13T15:58:18;24.40;41.00
81902;DHT22;71369;50.796;3.290;2023-07-13T16:00:45;24.40;39.40
81902;DHT22;71369;50.796;3.290;2023-07-13T16:03:11;24.20;40.50
81902;DHT22;71369;50.796;3.290;2023-07-13T16:05:38;23.90;40.90
81902;DHT22;71369;50.796;3.290;2023-07-13T16:08:06;23.80;41.20
81902;DHT22;71369;50.796;3.290;2023-07-13T16:10:37;23.70;43.10
81902;DHT22;71369;50.796;3.290;2023-07-13T16:13:09;23.80;43.60
81902;DHT22;71369;50.796;3.290;2023-07-13T16:15:39;23.60;42.00
81902;DHT22;71369;50.796;3.290;2023-07-13T16:18:11;23.70;42.50
81902;DHT22;71369;50.796;3.290;2023-07-13T16:20:46;23.70;43.40
81902;DHT22;71369;50.796;3.290;2023-07-13T16:23:14;23.80;43.30
81902;DHT22;71369;50.796;3.290;2023-07-13T16:25:41;23.80;42.60
81902;DHT22;71369;50.796;3.290;2023-07-13T16:28:10;23.80;42.50
81902;DHT22;71369;50.796;3.290;2023-07-13T16:30:37;23.60;42.20